Columbia Airport, CA

5:53 AM PDT on October 16, 2019 (GMT -0700)
Columbia Airport

Weather History for KO22 - August, 2019

Change the Weather History Date:

Tuesday, August 13, 2019

  Actual Average (KMOD) Record (KMOD)
Temperature  
Mean Temperature 78 °F -  
Max Temperature 96 °F 90 °F 107 °F (1996)
Min Temperature 59 °F 59 °F 49 °F (1949)
Cooling Degree Days 12    
Growing Degree Days 28 (Base 50)    
Moisture  
Dew Point 47 °F    
Average Humidity 40    
Maximum Humidity 72    
Minimum Humidity 14    
Precipitation  
Precipitation 0.00 in - - ()
Sea Level Pressure  
Sea Level Pressure 30.03 in    
Wind  
Wind Speed 2 mph (SW)    
Max Wind Speed 8 mph    
Max Gust Speed 13 mph    
Visibility 10 miles    
Events      
Averages and records for this station are not official NWS values.
T = Trace of Precipitation, MM = Missing Value Source: NWS Daily Summary

Daily Weather History Graph

Daily Weather History Graph

Search for Another Location

Airport or City:

Astronomy

Aug. 13, 2019 Rise Set
Actual Time 6:14 AM PDT 7:57 PM PDT
Civil Twilight 5:46 AM PDT 8:25 PM PDT
Nautical Twilight 5:12 AM PDT 8:59 PM PDT
Astronomical Twilight 4:36 AM PDT 9:35 PM PDT
Moon 7:14 PM PDT (8/13) 4:23 AM PDT (8/13)
Length of Visible Light 14h 39m
Length of Day
13h 42m
Waxing Gibbous, 97% of the Moon is Illuminated
Aug 13
Waxing Gibbous
Aug 15
Full
Aug 23
Last Quarter
Aug 30
New
Sep 5
First Quarter

Hourly Weather History & Observations

Time (PDT) Temp. Dew Point Humidity Pressure Visibility Wind Dir Wind Speed Gust Speed Precip Events Conditions
12:15 AM 66.2 °F 48.2 °F 52% 30.03 in 10.0 mi Variable 4.6 mph - N/A   Clear
12:35 AM 66.2 °F 48.2 °F 52% 30.03 in 10.0 mi Calm Calm - N/A   Clear
12:55 AM 64.4 °F 48.2 °F 56% 30.03 in 10.0 mi Calm Calm - N/A   Clear
1:15 AM 64.4 °F 48.2 °F 56% 30.02 in 10.0 mi Calm Calm - N/A   Clear
1:35 AM 62.6 °F 48.2 °F 59% 30.02 in 10.0 mi Calm Calm - N/A   Clear
1:55 AM 62.6 °F 48.2 °F 59% 30.02 in 10.0 mi Calm Calm - N/A   Clear
2:15 AM 62.6 °F 48.2 °F 59% 30.02 in 10.0 mi Calm Calm - N/A   Clear
2:35 AM 62.6 °F 48.2 °F 59% 30.01 in 10.0 mi Calm Calm - N/A   Clear
2:55 AM 62.6 °F 48.2 °F 59% 30.01 in 10.0 mi North - - N/A   Clear
3:15 AM 60.8 °F 48.2 °F 63% 30.01 in 10.0 mi Calm Calm - N/A   Clear
3:35 AM 60.8 °F 48.2 °F 63% 30.01 in 10.0 mi Calm Calm - N/A   Clear
3:55 AM 60.8 °F 48.2 °F 63% 30.01 in 10.0 mi Calm Calm - N/A   Clear
4:15 AM 59.0 °F 48.2 °F 67% 30.00 in 10.0 mi Calm Calm - N/A   Clear
4:35 AM 59.0 °F 50.0 °F 72% 30.01 in 10.0 mi Calm Calm - N/A   Clear
4:55 AM 59.0 °F 50.0 °F 72% 30.01 in 10.0 mi Calm Calm - N/A   Clear
5:15 AM 60.8 °F 50.0 °F 68% 30.01 in 10.0 mi Calm Calm - N/A   Clear
5:35 AM 59.0 °F 50.0 °F 72% 30.01 in 10.0 mi Variable 4.6 mph - N/A   Clear
5:55 AM 59.0 °F 50.0 °F 72% 30.01 in 10.0 mi Calm Calm - N/A   Clear
6:15 AM 59.0 °F 50.0 °F 72% 30.02 in 10.0 mi Calm Calm - N/A   Clear
6:35 AM 59.0 °F 50.0 °F 72% 30.02 in 10.0 mi Calm Calm - N/A   Clear
6:55 AM 60.8 °F 50.0 °F 68% 30.02 in 10.0 mi Calm Calm - N/A   Clear
7:15 AM 60.8 °F 51.8 °F 72% 30.03 in 10.0 mi North - - N/A   Clear
7:35 AM 64.4 °F 53.6 °F 68% 30.04 in 10.0 mi Calm Calm - N/A   Clear
7:55 AM 68.0 °F 53.6 °F 60% 30.04 in 10.0 mi Calm Calm - N/A   Clear
8:15 AM 73.4 °F 53.6 °F 50% 30.04 in 10.0 mi Calm Calm - N/A   Clear
8:35 AM 75.2 °F 55.4 °F 50% 30.04 in 10.0 mi Calm Calm - N/A   Clear
8:55 AM 78.8 °F 53.6 °F 42% 30.05 in 7.0 mi Calm Calm - N/A   Clear
9:15 AM 80.6 °F 51.8 °F 37% 30.05 in 10.0 mi Calm Calm - N/A   Clear
9:35 AM 82.4 °F 50.0 °F 32% 30.05 in 10.0 mi Calm Calm - N/A   Clear
9:55 AM 84.2 °F 50.0 °F 30% 30.05 in 10.0 mi Calm Calm - N/A   Clear
10:15 AM 84.2 °F 50.0 °F 30% 30.05 in 10.0 mi Calm Calm - N/A   Clear
10:35 AM 86.0 °F 50.0 °F 29% 30.06 in 10.0 mi Calm Calm - N/A   Clear
10:55 AM 86.0 °F 48.2 °F 27% 30.06 in 10.0 mi Calm Calm - N/A   Clear
11:15 AM 89.6 °F 48.2 °F 24% 30.06 in 10.0 mi Variable 5.8 mph 11.5 mph N/A   Clear
11:35 AM 91.4 °F 46.4 °F 21% 30.06 in 10.0 mi Variable 5.8 mph - N/A   Clear
11:55 AM 91.4 °F 46.4 °F 21% 30.06 in 10.0 mi Variable 3.5 mph 12.7 mph N/A   Clear
12:15 PM 89.6 °F 44.6 °F 21% 30.06 in 10.0 mi Calm Calm - N/A   Clear
12:35 PM 93.2 °F 44.6 °F 19% 30.06 in 10.0 mi SW 6.9 mph - N/A   Clear
12:55 PM 93.2 °F 44.6 °F 19% 30.05 in 10.0 mi Variable 6.9 mph - N/A   Clear
1:15 PM 93.2 °F 42.8 °F 17% 30.05 in 10.0 mi Variable 3.5 mph 12.7 mph N/A   Clear
1:35 PM 93.2 °F 41.0 °F 16% 30.05 in 10.0 mi Variable 4.6 mph 11.5 mph N/A   Clear
1:55 PM 93.2 °F 39.2 °F 15% 30.04 in 10.0 mi Variable 4.6 mph 11.5 mph N/A   Clear
2:15 PM 95.0 °F 41.0 °F 15% 30.04 in 10.0 mi Variable 5.8 mph - N/A   Clear
2:35 PM 95.0 °F 39.2 °F 14% 30.03 in 10.0 mi Variable 4.6 mph - N/A   Clear
2:55 PM 95.0 °F 39.2 °F 14% 30.03 in 10.0 mi Variable 4.6 mph - N/A   Clear
3:15 PM 95.0 °F 41.0 °F 15% 30.02 in 10.0 mi Variable 4.6 mph - N/A   Clear
3:35 PM 96.8 °F 41.0 °F 15% 30.02 in 10.0 mi Variable 4.6 mph - N/A   Clear
3:55 PM 96.8 °F 41.0 °F 15% 30.02 in 10.0 mi Variable 6.9 mph - N/A   Clear
4:15 PM 95.0 °F 42.8 °F 16% 30.01 in 10.0 mi Variable 8.1 mph - N/A   Clear
4:35 PM 95.0 °F 42.8 °F 16% 30.01 in 10.0 mi SW 4.6 mph - N/A   Clear
4:55 PM 95.0 °F 42.8 °F 16% 30.00 in 10.0 mi Variable 6.9 mph - N/A   Clear
5:15 PM 95.0 °F 42.8 °F 16% 30.00 in 10.0 mi Variable 5.8 mph - N/A   Clear
5:35 PM 93.2 °F 42.8 °F 17% 30.00 in 10.0 mi SW 5.8 mph - N/A   Clear
5:55 PM 93.2 °F 42.8 °F 17% 30.00 in 10.0 mi Variable 5.8 mph - N/A   Clear
6:15 PM 93.2 °F 41.0 °F 16% 30.00 in 10.0 mi Variable 5.8 mph - N/A   Clear
6:35 PM 93.2 °F 42.8 °F 17% 30.00 in 10.0 mi Variable 4.6 mph - N/A   Clear
6:55 PM 91.4 °F 42.8 °F 18% 30.00 in 10.0 mi SW 4.6 mph - N/A   Clear
7:15 PM 89.6 °F 42.8 °F 20% 30.00 in 10.0 mi Variable 4.6 mph - N/A   Clear
7:35 PM 87.8 °F 42.8 °F 21% 30.00 in 10.0 mi Calm Calm - N/A   Clear
7:55 PM 82.4 °F 44.6 °F 26% 30.00 in 10.0 mi SW 4.6 mph - N/A   Clear
8:15 PM 80.6 °F 44.6 °F 28% 30.01 in 10.0 mi Calm Calm - N/A   Clear
8:35 PM 78.8 °F 50.0 °F 36% 30.01 in 10.0 mi Variable 4.6 mph - N/A   Clear
8:55 PM 75.2 °F 50.0 °F 41% 30.02 in 10.0 mi Calm Calm - N/A   Clear
9:15 PM 75.2 °F 50.0 °F 41% 30.02 in 10.0 mi Calm Calm - N/A   Clear
9:35 PM 73.4 °F 48.2 °F 41% 30.03 in 10.0 mi Calm Calm - N/A   Clear
9:55 PM 69.8 °F 48.2 °F 46% 30.03 in 10.0 mi Calm Calm - N/A   Clear
10:15 PM 69.8 °F 48.2 °F 46% 30.04 in 10.0 mi Calm Calm - N/A   Clear
10:35 PM 69.8 °F 48.2 °F 46% 30.04 in 10.0 mi Calm Calm - N/A   Clear
10:55 PM 68.0 °F 48.2 °F 49% 30.04 in 10.0 mi Calm Calm - N/A   Clear
11:15 PM 69.8 °F 48.2 °F 46% 30.04 in 10.0 mi Calm Calm - N/A   Clear
11:35 PM 68.0 °F 48.2 °F 49% 30.04 in 10.0 mi Calm Calm - N/A   Clear
11:55 PM 68.0 °F 48.2 °F 49% 30.04 in 10.0 mi Calm Calm - N/A   Clear